Time;durP1;ratioP1;P1;durP2;ratioP2;P2;SDS_P1;SDS_P2;PMS_P1;PMS_P2;Temp;Humidity;BMP_temperature;BMP_pressure;BME280_temperature;BME280_humidity;BME280_pressure;Samples;Min_cycle;Max_cycle;Signal;HPM_P1;HPM_P2
2023/07/12 00:01:26;;;;;;;15.50;11.25;;;29.20;91.60;;;;;;4891631;29;20047;-84
2023/07/12 00:03:52;;;;;;;14.10;10.27;;;29.20;91.70;;;;;;4884602;29;20035;-84
2023/07/12 00:06:29;;;;;;;24.45;11.25;;;29.20;91.60;;;;;;4889676;29;20080;-84
2023/07/12 00:08:54;;;;;;;;;;;29.10;91.50;;;;;;4881534;29;20104;-84
2023/07/12 00:11:46;;;;;;;15.18;9.40;;;29.10;91.30;;;;;;4908378;29;19921;-84
2023/07/12 00:14:12;;;;;;;15.80;10.75;;;29.00;91.70;;;;;;4887116;29;20385;-84
2023/07/12 00:16:40;;;;;;;14.27;11.17;;;28.90;91.90;;;;;;4891376;29;20032;-84
2023/07/12 00:19:09;;;;;;;12.73;10.18;;;28.90;91.90;;;;;;4910440;29;20028;-84
2023/07/12 00:21:35;;;;;;;18.10;9.55;;;28.90;92.10;;;;;;4891474;29;20367;-84
2023/07/12 00:24:01;;;;;;;13.97;9.83;;;28.90;92.20;;;;;;4886740;29;20150;-84
2023/07/12 00:26:31;;;;;;;17.20;10.80;;;28.80;92.20;;;;;;4873480;29;20039;-84
2023/07/12 00:28:59;;;;;;;12.93;10.20;;;28.80;92.30;;;;;;4896686;29;20059;-84
2023/07/12 00:31:25;;;;;;;11.30;9.77;;;28.70;92.60;;;;;;4894035;29;20038;-84
2023/07/12 00:33:51;;;;;;;14.07;9.82;;;28.70;92.70;;;;;;4879606;29;20028;-84
2023/07/12 00:36:20;;;;;;;13.75;10.00;;;28.70;92.40;;;;;;4896693;29;20068;-84
2023/07/12 00:38:46;;;;;;;18.08;9.55;;;28.70;92.40;;;;;;4879798;29;20029;-84
2023/07/12 00:41:48;;;;;;;15.40;10.47;;;28.70;92.40;;;;;;4864413;29;20108;-84
2023/07/12 00:44:31;;;;;;;18.42;10.93;;;28.70;91.50;;;;;;4888872;29;20486;-84
2023/07/12 00:46:58;;;;;;;13.68;9.75;;;28.80;92.00;;;;;;4898216;29;20039;-83
2023/07/12 00:49:25;;;;;;;19.48;10.93;;;28.70;92.30;;;;;;4882887;29;20114;-84
2023/07/12 00:52:02;;;;;;;15.77;9.52;;;28.70;92.10;;;;;;4898325;29;20442;-84
2023/07/12 00:54:54;;;;;;;13.77;10.82;;;28.70;92.00;;;;;;4882648;29;20028;-84
2023/07/12 00:57:25;;;;;;;13.23;9.10;;;28.70;92.00;;;;;;4883755;29;20029;-84
2023/07/12 00:59:54;;;;;;;13.30;10.55;;;28.70;91.90;;;;;;4914177;29;20017;-84
2023/07/12 01:02:23;;;;;;;14.70;10.55;;;28.70;92.00;;;;;;4906402;29;20084;-84
2023/07/12 01:04:53;;;;;;;12.68;9.77;;;28.70;91.90;;;;;;4894415;29;20126;-84
2023/07/12 01:07:20;;;;;;;11.15;9.65;;;28.60;91.90;;;;;;4904815;29;20036;-84
2023/07/12 01:09:47;;;;;;;11.98;10.45;;;28.60;91.80;;;;;;4893946;29;20115;-84
2023/07/12 01:12:15;;;;;;;16.10;10.27;;;28.70;91.70;;;;;;4888218;29;20119;-84
2023/07/12 01:14:41;;;;;;;14.75;10.30;;;28.70;91.60;;;;;;4891102;29;20401;-84
2023/07/12 01:17:08;;;;;;;18.77;9.95;;;28.70;91.60;;;;;;4884480;29;20055;-84
2023/07/12 01:19:36;;;;;;;14.63;10.25;;;28.70;91.80;;;;;;4895806;29;20043;-84
2023/07/12 01:22:03;;;;;;;20.77;10.23;;;28.70;91.50;;;;;;4889494;29;20032;-84
2023/07/12 01:24:33;;;;;;;13.57;10.95;;;28.60;91.50;;;;;;4882377;29;20060;-84
2023/07/12 01:27:13;;;;;;;17.33;10.60;;;28.60;91.50;;;;;;4913243;23;20041;-85
2023/07/12 01:29:40;;;;;;;40.80;12.48;;;28.60;91.40;;;;;;4864138;29;20387;-85
2023/07/12 01:32:06;;;;;;;16.05;11.55;;;28.60;91.30;;;;;;4880828;29;20088;-86
2023/07/12 01:34:32;;;;;;;15.50;11.15;;;28.60;91.50;;;;;;4879643;29;20499;-85
2023/07/12 01:37:04;;;;;;;17.05;12.35;;;28.60;91.60;;;;;;4879335;29;20076;-85
2023/07/12 01:39:34;;;;;;;18.40;11.70;;;28.60;91.50;;;;;;4879514;29;20511;-85
2023/07/12 01:42:00;;;;;;;17.75;11.63;;;28.60;91.60;;;;;;4879430;29;20096;-85
2023/07/12 01:44:26;;;;;;;12.95;10.70;;;28.50;91.80;;;;;;4863921;29;20076;-85
2023/07/12 01:46:51;;;;;;;18.03;11.20;;;28.50;91.80;;;;;;4863712;29;20065;-86
2023/07/12 01:49:17;;;;;;;23.03;11.47;;;28.50;92.10;;;;;;4863895;29;20285;-86
2023/07/12 01:51:43;;;;;;;20.73;12.07;;;28.40;92.10;;;;;;4879274;29;20037;-85
2023/07/12 01:54:09;;;;;;;19.50;12.07;;;28.40;92.10;;;;;;4880574;29;20029;-85
2023/07/12 01:56:38;;;;;;;18.02;12.43;;;28.40;92.00;;;;;;4878967;29;20036;-86
2023/07/12 01:59:04;;;;;;;18.43;13.23;;;28.40;91.90;;;;;;4863793;29;20028;-86
2023/07/12 02:01:29;;;;;;;12.57;11.10;;;28.40;91.90;;;;;;4878924;29;20057;-85
2023/07/12 02:03:55;;;;;;;16.13;12.80;;;28.40;91.90;;;;;;4862633;29;20348;-85
2023/07/12 02:06:21;;;;;;;12.63;10.60;;;28.40;92.10;;;;;;4878435;29;20081;-85
2023/07/12 02:08:47;;;;;;;14.77;12.48;;;28.40;92.30;;;;;;4878971;29;20053;-85
2023/07/12 02:11:13;;;;;;;18.23;12.90;;;28.30;92.50;;;;;;4863270;29;20057;-85
2023/07/12 02:13:39;;;;;;;19.17;12.40;;;28.20;92.50;;;;;;4863258;29;20412;-85
2023/07/12 02:16:05;;;;;;;50.60;16.03;;;28.20;92.60;;;;;;4863260;29;20045;-85
2023/07/12 02:18:35;;;;;;;24.98;14.38;;;28.20;92.70;;;;;;4878590;29;20041;-85
2023/07/12 02:21:01;;;;;;;19.33;14.80;;;28.20;92.70;;;;;;4879944;29;20086;-85
2023/07/12 02:23:27;;;;;;;16.90;14.65;;;28.20;92.80;;;;;;4879724;29;20029;-86
2023/07/12 02:25:53;;;;;;;15.93;14.25;;;28.10;92.90;;;;;;4878804;29;20040;-86
2023/07/12 02:28:18;;;;;;;16.10;14.40;;;28.10;93.00;;;;;;4878337;29;20041;-85
2023/07/12 02:30:44;;;;;;;16.37;14.63;;;28.10;93.00;;;;;;4862973;29;20039;-86
2023/07/12 02:33:10;;;;;;;17.60;14.47;;;28.10;93.00;;;;;;4862985;29;20033;-85
2023/07/12 02:35:39;;;;;;;17.00;13.55;;;28.10;93.10;;;;;;4878426;29;20044;-85
2023/07/12 02:38:05;;;;;;;16.02;14.02;;;28.10;93.20;;;;;;4878123;29;20029;-85
2023/07/12 02:40:32;;;;;;;19.05;14.88;;;28.10;93.20;;;;;;4878378;29;20036;-86
2023/07/12 02:42:58;;;;;;;16.50;14.75;;;28.10;93.30;;;;;;4862885;29;20029;-86
2023/07/12 02:45:24;;;;;;;21.77;16.50;;;28.10;93.20;;;;;;4879209;29;20391;-85
2023/07/12 02:47:50;;;;;;;17.77;15.85;;;28.00;93.20;;;;;;4879163;29;20029;-85
2023/07/12 02:50:16;;;;;;;20.60;16.55;;;28.00;93.40;;;;;;4863036;29;20033;-85
2023/07/12 02:52:43;;;;;;;18.25;16.45;;;27.90;93.60;;;;;;4878150;29;20047;-85
2023/07/12 02:55:09;;;;;;;21.45;16.13;;;27.90;93.70;;;;;;4878067;29;20033;-85
2023/07/12 02:57:35;;;;;;;19.80;16.70;;;27.80;93.80;;;;;;4877746;29;20032;-85
2023/07/12 03:00:02;;;;;;;19.73;16.93;;;27.70;93.90;;;;;;4878107;29;20383;-86
2023/07/12 03:02:29;;;;;;;23.50;18.25;;;27.70;94.10;;;;;;4878165;29;20643;-85
2023/07/12 03:04:54;;;;;;;19.95;17.88;;;27.60;94.40;;;;;;4878152;29;20036;-85
2023/07/12 03:07:20;;;;;;;20.53;17.90;;;27.60;94.30;;;;;;4873774;29;20033;-85
2023/07/12 03:09:46;;;;;;;22.53;17.60;;;27.60;94.50;;;;;;4862213;29;20060;-85
2023/07/12 03:12:12;;;;;;;23.23;18.40;;;27.50;94.40;;;;;;4879193;29;20025;-85
2023/07/12 03:14:38;;;;;;;23.03;18.93;;;27.50;94.50;;;;;;4879386;29;20037;-85
2023/07/12 03:17:05;;;;;;;32.95;19.65;;;27.50;94.50;;;;;;4868664;29;20037;-85
2023/07/12 03:19:35;;;;;;;25.77;19.70;;;27.60;94.50;;;;;;4885555;29;20033;-86
2023/07/12 03:22:01;;;;;;;22.05;19.52;;;27.60;94.70;;;;;;4897892;29;20036;-85
2023/07/12 03:24:28;;;;;;;22.30;20.17;;;27.50;94.70;;;;;;4896578;29;20029;-85
2023/07/12 03:26:54;;;;;;;23.33;20.88;;;27.50;94.70;;;;;;4877239;29;20041;-85
2023/07/12 03:29:20;;;;;;;25.88;20.88;;;27.50;94.80;;;;;;4861987;29;20566;-85
2023/07/12 03:31:46;;;;;;;24.77;20.83;;;27.50;94.60;;;;;;4877248;29;20044;-85
2023/07/12 03:34:12;;;;;;;23.40;20.27;;;27.40;94.70;;;;;;4877442;29;20032;-86
2023/07/12 03:36:39;;;;;;;26.13;21.73;;;27.40;94.90;;;;;;4877214;29;20085;-85
2023/07/12 03:39:05;;;;;;;23.00;20.60;;;27.40;95.20;;;;;;4878579;29;20092;-85
2023/07/12 03:41:31;;;;;;;22.63;20.23;;;27.40;94.90;;;;;;4878030;29;20097;-85
2023/07/12 03:43:57;;;;;;;22.20;19.93;;;27.40;94.90;;;;;;4877955;29;20049;-85
2023/07/12 03:46:22;;;;;;;25.63;22.17;;;27.40;94.90;;;;;;4878745;29;20025;-85
2023/07/12 03:48:48;;;;;;;22.70;19.95;;;27.40;95.00;;;;;;4877657;29;20029;-85
2023/07/12 03:51:17;;;;;;;24.42;21.30;;;27.40;95.00;;;;;;4881871;29;20029;-84
2023/07/12 03:53:44;;;;;;;38.55;21.27;;;27.40;95.00;;;;;;4883790;29;20044;-83
2023/07/12 03:56:10;;;;;;;23.80;21.23;;;27.40;95.30;;;;;;4873734;29;20025;-85
2023/07/12 03:58:39;;;;;;;22.40;20.10;;;27.40;95.40;;;;;;4876122;29;20029;-86
2023/07/12 04:01:09;;;;;;;22.60;20.23;;;27.40;95.50;;;;;;4876624;29;20032;-85
2023/07/12 04:03:36;;;;;;;22.75;20.48;;;27.40;95.60;;;;;;4862271;29;20029;-85
2023/07/12 04:06:03;;;;;;;24.33;21.75;;;27.30;95.80;;;;;;4877676;29;20041;-85
2023/07/12 04:08:29;;;;;;;26.05;21.08;;;27.30;95.80;;;;;;4862235;29;20503;-85
2023/07/12 04:10:56;;;;;;;26.58;21.88;;;27.20;95.80;;;;;;4879008;29;20093;-85
2023/07/12 04:13:24;;;;;;;24.88;19.55;;;27.20;96.00;;;;;;4862030;29;20040;-86
2023/07/12 04:15:55;;;;;;;23.23;20.27;;;27.20;96.20;;;;;;4879053;29;20037;-85
2023/07/12 04:18:23;;;;;;;21.90;19.70;;;27.20;96.20;;;;;;4877746;29;20065;-85
2023/07/12 04:20:49;;;;;;;26.27;20.65;;;27.30;96.20;;;;;;4878901;29;20025;-86
2023/07/12 04:23:15;;;;;;;22.55;19.90;;;27.30;96.20;;;;;;4877827;29;20029;-85
2023/07/12 04:25:42;;;;;;;21.65;19.52;;;27.30;96.20;;;;;;4862269;29;20043;-85
2023/07/12 04:28:07;;;;;;;;;;;27.40;96.10;;;;;;4862519;29;20045;-85
2023/07/12 04:30:33;;;;;;;23.08;18.05;;;27.30;96.50;;;;;;4877324;29;19918;-86
2023/07/12 04:33:00;;;;;;;21.07;18.60;;;27.30;96.40;;;;;;4879965;29;20056;-85
2023/07/12 04:35:26;;;;;;;20.15;18.05;;;27.30;96.60;;;;;;4882270;29;20273;-85
2023/07/12 04:37:52;;;;;;;25.83;18.60;;;27.30;96.70;;;;;;4868000;29;20040;-85
2023/07/12 04:40:18;;;;;;;27.50;18.73;;;27.30;96.80;;;;;;4880615;29;20041;-85
2023/07/12 04:42:44;;;;;;;45.08;17.90;;;27.40;97.20;;;;;;4880565;29;20029;-85
2023/07/12 04:45:12;;;;;;;29.95;18.05;;;27.40;96.80;;;;;;4881634;29;20044;-85
2023/07/12 04:47:39;;;;;;;27.83;17.63;;;27.40;97.00;;;;;;4880290;29;20084;-86
2023/07/12 04:50:07;;;;;;;25.08;18.00;;;27.40;96.90;;;;;;4881633;29;20029;-85
2023/07/12 04:52:33;;;;;;;20.90;17.30;;;27.50;97.10;;;;;;4880194;29;20033;-86
2023/07/12 04:55:03;;;;;;;23.23;17.13;;;27.40;97.30;;;;;;4864986;29;20502;-86
2023/07/12 04:57:30;;;;;;;20.27;17.23;;;27.40;97.30;;;;;;4864620;29;20037;-86
2023/07/12 04:59:56;;;;;;;20.58;18.05;;;27.40;97.30;;;;;;4865028;29;20109;-86
2023/07/12 05:02:22;;;;;;;18.63;16.70;;;27.50;97.30;;;;;;4881498;29;20115;-85
2023/07/12 05:04:48;;;;;;;22.50;18.83;;;27.50;97.30;;;;;;4880205;29;20514;-86
2023/07/12 05:07:13;;;;;;;22.30;20.00;;;27.50;97.30;;;;;;4864525;29;20460;-86
2023/07/12 05:09:48;;;;;;;23.47;18.80;;;27.60;97.20;;;;;;4880051;29;20043;-86
2023/07/12 05:12:14;;;;;;;21.48;18.80;;;27.80;96.90;;;;;;4879972;29;20430;-86
2023/07/12 05:14:40;;;;;;;22.03;19.77;;;27.90;96.90;;;;;;4864633;29;20032;-86
2023/07/12 05:17:06;;;;;;;20.83;17.05;;;27.90;97.00;;;;;;4864335;29;20081;-86
2023/07/12 05:19:32;;;;;;;20.60;18.43;;;28.00;96.90;;;;;;4881203;29;20033;-86
2023/07/12 05:21:58;;;;;;;21.03;18.60;;;28.00;96.80;;;;;;4879983;29;20033;-87
2023/07/12 05:24:23;;;;;;;21.97;19.67;;;28.00;96.90;;;;;;4865045;29;20033;-87
2023/07/12 05:26:49;;;;;;;22.33;19.13;;;28.00;96.80;;;;;;4864202;29;20033;-86
2023/07/12 05:29:15;;;;;;;27.80;19.77;;;28.00;96.80;;;;;;4879840;29;20041;-87
2023/07/12 05:31:41;;;;;;;21.77;19.58;;;28.00;96.80;;;;;;4879716;29;20065;-86
2023/07/12 05:34:07;;;;;;;24.77;19.60;;;27.90;96.90;;;;;;4864078;29;20076;-87
2023/07/12 05:36:32;;;;;;;21.03;18.57;;;27.90;96.90;;;;;;4879426;29;20041;-86
2023/07/12 05:38:58;;;;;;;20.70;18.67;;;28.00;97.00;;;;;;4864119;29;20025;-86
2023/07/12 05:41:25;;;;;;;24.23;18.53;;;28.00;96.90;;;;;;4879548;29;20603;-86
2023/07/12 05:43:51;;;;;;;20.42;18.48;;;28.00;96.80;;;;;;4879115;29;20502;-86
2023/07/12 05:46:17;;;;;;;20.53;18.47;;;28.10;97.20;;;;;;4879395;29;20036;-86
2023/07/12 05:48:42;;;;;;;22.37;17.00;;;28.20;97.10;;;;;;4879352;29;20037;-87
2023/07/12 05:51:08;;;;;;;24.57;18.37;;;28.20;96.90;;;;;;4879328;29;20037;-87
2023/07/12 05:53:34;;;;;;;20.70;16.77;;;28.30;96.80;;;;;;4863701;29;20045;-86
2023/07/12 05:56:01;;;;;;;18.50;15.83;;;28.30;97.10;;;;;;4879271;29;20262;-87
2023/07/12 05:58:27;;;;;;;18.50;15.60;;;28.30;97.20;;;;;;4880787;29;20271;-86
2023/07/12 06:00:58;;;;;;;21.23;18.92;;;28.40;97.10;;;;;;4879338;29;20041;-86
2023/07/12 06:03:25;;;;;;;25.88;18.83;;;28.50;97.20;;;;;;4879210;29;20067;-86
2023/07/12 06:05:52;;;;;;;21.55;17.85;;;28.50;97.10;;;;;;4879601;29;20056;-86
2023/07/12 06:08:18;;;;;;;20.60;17.88;;;28.50;97.00;;;;;;4880832;29;20097;-86
2023/07/12 06:10:45;;;;;;;23.77;18.23;;;28.50;97.20;;;;;;4866224;29;20033;-86
2023/07/12 06:13:11;;;;;;;18.45;16.75;;;28.50;97.40;;;;;;4880142;29;20041;-86
2023/07/12 06:15:37;;;;;;;19.83;17.73;;;28.50;97.70;;;;;;4863397;29;20092;-87
2023/07/12 06:18:03;;;;;;;19.73;17.63;;;28.50;97.80;;;;;;4863512;29;20040;-86
2023/07/12 06:20:29;;;;;;;20.02;17.95;;;28.50;97.90;;;;;;4878756;29;20033;-86
2023/07/12 06:22:54;;;;;;;21.73;17.13;;;28.50;97.90;;;;;;4880056;29;20491;-86
2023/07/12 06:25:20;;;;;;;26.00;17.70;;;28.60;97.80;;;;;;4878913;29;20036;-86
2023/07/12 06:27:46;;;;;;;19.45;16.88;;;28.60;97.70;;;;;;4878767;29;20187;-86
2023/07/12 06:30:12;;;;;;;19.00;16.17;;;28.60;97.80;;;;;;4863331;29;20033;-85
2023/07/12 06:32:38;;;;;;;19.20;17.25;;;28.60;98.00;;;;;;4879722;29;20041;-86
2023/07/12 06:35:04;;;;;;;18.43;16.53;;;28.60;98.20;;;;;;4863120;29;20033;-86
2023/07/12 06:37:30;;;;;;;21.45;17.10;;;28.50;98.30;;;;;;4879616;29;20269;-85
2023/07/12 06:39:56;;;;;;;21.98;17.67;;;28.50;98.50;;;;;;4878515;29;20036;-86
2023/07/12 06:42:22;;;;;;;21.55;15.98;;;28.50;98.40;;;;;;4879637;29;20033;-86
2023/07/12 06:44:50;;;;;;;19.58;15.18;;;28.50;98.40;;;;;;4878650;29;20033;-87
2023/07/12 06:47:16;;;;;;;22.57;15.97;;;28.50;98.30;;;;;;4862819;29;20047;-87
2023/07/12 06:49:42;;;;;;;20.43;16.77;;;28.50;98.30;;;;;;4878467;29;20040;-86
2023/07/12 06:52:10;;;;;;;151.60;28.63;;;28.60;98.40;;;;;;4878295;29;20330;-85
2023/07/12 06:54:36;;;;;;;17.92;14.65;;;28.60;98.20;;;;;;4879159;29;20483;-86
2023/07/12 06:57:02;;;;;;;;;;;28.70;98.00;;;;;;4878382;29;20036;-86
2023/07/12 06:59:28;;;;;;;17.10;14.63;;;28.80;97.90;;;;;;4879459;29;19911;-86
2023/07/12 07:01:54;;;;;;;16.03;13.87;;;28.90;97.60;;;;;;4878041;29;20033;-86
2023/07/12 07:04:20;;;;;;;17.80;12.47;;;28.90;97.00;;;;;;4879300;29;20274;-87
2023/07/12 07:06:45;;;;;;;32.93;15.23;;;29.00;96.30;;;;;;4878122;29;20115;-86
2023/07/12 07:09:11;;;;;;;17.93;12.43;;;29.00;95.90;;;;;;4879366;29;20277;-85
2023/07/12 07:11:37;;;;;;;20.43;11.03;;;29.00;95.40;;;;;;4862346;29;20466;-86
2023/07/12 07:14:03;;;;;;;15.95;11.05;;;28.90;95.10;;;;;;4879189;29;20104;-86
2023/07/12 07:16:30;;;;;;;22.25;10.52;;;28.90;94.90;;;;;;4862247;29;20490;-86
2023/07/12 07:18:56;;;;;;;20.45;11.60;;;29.00;94.90;;;;;;4862403;29;20033;-86
2023/07/12 07:21:22;;;;;;;14.63;10.95;;;29.20;94.80;;;;;;4878951;29;20044;-88
2023/07/12 07:23:48;;;;;;;98.20;28.52;;;29.30;95.10;;;;;;4877694;29;20037;-87
2023/07/12 07:26:14;;;;;;;23.10;11.80;;;29.40;94.90;;;;;;4878752;29;20410;-87
2023/07/12 07:28:41;;;;;;;12.75;10.55;;;29.50;94.60;;;;;;4935719;23;20053;-80
2023/07/12 07:31:07;;;;;;;14.70;9.95;;;29.60;94.10;;;;;;4881440;29;20530;-81
2023/07/12 07:33:33;;;;;;;30.67;12.35;;;29.60;94.10;;;;;;4881523;29;20077;-81
2023/07/12 07:35:59;;;;;;;18.08;10.40;;;29.80;94.20;;;;;;4881966;29;20068;-81
2023/07/12 07:38:27;;;;;;;21.13;9.57;;;29.80;93.90;;;;;;4866865;29;20069;-82
2023/07/12 07:40:55;;;;;;;8.98;8.07;;;29.90;93.90;;;;;;4862560;29;20402;-81
2023/07/12 07:43:21;;;;;;;69.97;14.30;;;29.90;93.50;;;;;;4863805;29;20033;-80
2023/07/12 07:45:47;;;;;;;;;;;29.90;93.30;;;;;;4864229;29;20060;-81
2023/07/12 07:48:15;;;;;;;16.00;8.98;;;30.00;93.50;;;;;;4862663;29;20369;-80
2023/07/12 07:50:42;;;;;;;12.98;7.88;;;30.10;92.40;;;;;;4881222;29;20040;-80
2023/07/12 07:53:11;;;;;;;15.77;8.93;;;30.10;92.00;;;;;;4863148;29;20037;-80
2023/07/12 07:55:45;;;;;;;10.80;7.03;;;30.10;91.30;;;;;;4879581;29;20053;-80
2023/07/12 07:58:12;;;;;;;15.63;8.10;;;30.10;90.60;;;;;;4882003;29;20036;-80
2023/07/12 08:00:38;;;;;;;;;;;30.10;90.70;;;;;;4865784;29;20040;-81
2023/07/12 08:03:06;;;;;;;13.27;7.32;;;30.10;90.00;;;;;;4880948;29;20352;-80
2023/07/12 08:05:32;;;;;;;20.90;7.78;;;30.10;89.50;;;;;;4880837;29;20112;-80
2023/07/12 08:07:59;;;;;;;14.00;6.75;;;30.00;89.30;;;;;;4882253;29;20043;-80
2023/07/12 08:10:25;;;;;;;;;;;30.00;89.90;;;;;;4882113;29;20029;-81
2023/07/12 08:12:52;;;;;;;12.18;7.15;;;30.00;88.60;;;;;;4863952;29;19916;-81
2023/07/12 08:15:20;;;;;;;20.23;7.10;;;29.90;88.40;;;;;;4879415;29;20036;-80
2023/07/12 08:17:47;;;;;;;14.45;7.72;;;30.00;90.00;;;;;;4878823;29;20029;-80
2023/07/12 08:20:13;;;;;;;14.00;7.85;;;30.00;90.00;;;;;;4862329;29;20025;-80
2023/07/12 08:22:38;;;;;;;17.33;7.60;;;30.00;89.10;;;;;;4879043;29;20170;-80
2023/07/12 08:25:05;;;;;;;20.25;8.15;;;30.10;88.60;;;;;;4862432;29;20044;-80
2023/07/12 08:27:31;;;;;;;25.05;9.52;;;30.10;88.40;;;;;;4878194;29;20037;-80
2023/07/12 08:29:59;;;;;;;18.73;7.53;;;30.20;89.30;;;;;;4879136;29;20033;-80
2023/07/12 08:32:30;;;;;;;12.82;7.10;;;30.10;87.80;;;;;;4861470;29;20093;-80
2023/07/12 08:34:57;;;;;;;14.82;7.13;;;30.20;88.70;;;;;;4877517;29;20089;-80
2023/07/12 08:37:24;;;;;;;10.10;6.10;;;30.20;87.50;;;;;;4877990;29;20039;-80
2023/07/12 08:39:51;;;;;;;11.00;5.75;;;30.30;87.10;;;;;;4881009;29;20036;-80
2023/07/12 08:42:40;;;;;;;9.77;7.00;;;30.30;87.10;;;;;;4879060;29;20057;-80
2023/07/12 08:45:33;;;;;;;10.23;5.80;;;30.40;86.10;;;;;;4878991;29;20112;-80
2023/07/12 08:48:04;;;;;;;8.00;6.03;;;30.50;85.30;;;;;;4877497;29;20504;-80
2023/07/12 08:50:44;;;;;;;8.77;6.75;;;30.50;84.70;;;;;;4880886;29;20165;-80
2023/07/12 08:53:29;;;;;;;11.38;6.60;;;30.60;84.00;;;;;;4879776;29;20071;-80
2023/07/12 08:55:59;;;;;;;15.85;5.38;;;30.70;84.10;;;;;;4883243;29;20456;-80
2023/07/12 08:58:33;;;;;;;15.23;6.68;;;30.70;82.00;;;;;;4878724;29;20033;-80
2023/07/12 09:01:32;;;;;;;12.45;6.18;;;30.70;81.50;;;;;;4878609;29;20089;-81
2023/07/12 09:03:58;;;;;;;9.68;6.10;;;30.80;81.70;;;;;;4861750;29;20040;-80
2023/07/12 09:06:24;;;;;;;6.57;4.30;;;30.90;82.30;;;;;;4878982;29;20081;-80
2023/07/12 09:08:53;;;;;;;9.27;5.18;;;31.00;81.50;;;;;;4861954;29;20414;-80
2023/07/12 09:11:29;;;;;;;9.52;4.72;;;31.00;79.80;;;;;;4880105;29;20049;-80
2023/07/12 09:13:56;;;;;;;15.10;5.80;;;31.10;80.50;;;;;;4863788;29;20063;-80
2023/07/12 09:16:28;;;;;;;12.63;5.88;;;31.20;80.40;;;;;;4862334;29;20124;-81
2023/07/12 09:18:57;;;;;;;9.95;5.35;;;31.20;79.30;;;;;;4880367;29;20033;-80
2023/07/12 09:21:29;;;;;;;7.10;5.20;;;31.30;79.10;;;;;;4882682;29;20048;-80
2023/07/12 09:24:00;;;;;;;9.20;5.57;;;31.30;78.40;;;;;;4881821;29;20390;-80
2023/07/12 09:26:31;;;;;;;8.73;5.30;;;31.40;76.80;;;;;;4882445;29;20039;-80
2023/07/12 09:29:04;;;;;;;10.88;5.43;;;31.50;76.00;;;;;;4882006;29;20092;-80
2023/07/12 09:31:30;;;;;;;13.00;5.10;;;31.50;75.40;;;;;;4866095;29;20490;-80
2023/07/12 09:34:00;;;;;;;9.77;5.18;;;31.50;75.10;;;;;;4881676;29;20394;-80
2023/07/12 09:36:27;;;;;;;13.57;5.70;;;31.50;74.50;;;;;;4883063;29;20646;-80
2023/07/12 09:38:59;;;;;;;8.82;4.88;;;31.40;75.30;;;;;;4884047;29;20029;-80
2023/07/12 09:41:25;;;;;;;9.07;5.30;;;31.50;75.10;;;;;;4881619;29;20487;-80
2023/07/12 09:43:56;;;;;;;10.15;4.63;;;31.50;74.60;;;;;;4864449;29;20033;-80
2023/07/12 09:47:01;;;;;;;8.32;5.10;;;31.60;74.10;;;;;;4864460;29;20033;-80
2023/07/12 09:50:04;;;;;;;8.18;4.80;;;31.70;72.60;;;;;;4880780;29;20088;-80
2023/07/12 09:53:08;;;;;;;9.95;5.65;;;31.70;72.90;;;;;;4864039;29;20064;-80
2023/07/12 09:55:40;;;;;;;10.57;5.45;;;31.80;72.70;;;;;;4863988;29;20060;-80
2023/07/12 09:58:18;;;;;;;11.73;5.38;;;31.90;73.20;;;;;;4881038;29;20063;-80
2023/07/12 10:00:57;;;;;;;11.00;5.38;;;31.90;72.30;;;;;;4880631;29;20559;-80
2023/07/12 10:03:27;;;;;;;10.23;5.57;;;32.00;73.00;;;;;;4880563;29;20037;-80
2023/07/12 10:06:27;;;;;;;9.82;5.65;;;32.00;73.20;;;;;;4863747;29;20037;-80
2023/07/12 10:09:05;;;;;;;9.90;5.40;;;32.10;72.70;;;;;;4872583;29;20052;-80
2023/07/12 10:11:38;;;;;;;12.43;5.53;;;32.10;72.40;;;;;;4880670;29;20039;-81
2023/07/12 10:14:09;;;;;;;10.85;5.80;;;32.10;72.60;;;;;;4882271;29;20076;-82
2023/07/12 10:17:00;;;;;;;13.95;6.32;;;32.10;72.70;;;;;;4881762;29;20029;-81
2023/07/12 10:19:33;;;;;;;12.23;5.78;;;32.20;72.70;;;;;;4881581;29;20439;-81
2023/07/12 10:22:15;;;;;;;9.30;5.63;;;32.20;73.80;;;;;;4878795;29;20040;-81
2023/07/12 10:24:44;;;;;;;15.93;7.25;;;32.30;73.50;;;;;;4879344;29;20033;-80
2023/07/12 10:27:23;;;;;;;17.30;6.15;;;32.40;74.10;;;;;;4863150;29;20025;-81
2023/07/12 10:29:54;;;;;;;11.30;5.70;;;32.50;73.70;;;;;;4877828;29;20040;-80
2023/07/12 10:32:57;;;;;;;11.57;5.68;;;32.60;74.20;;;;;;4880957;29;20025;-80
2023/07/12 10:35:27;;;;;;;13.15;5.20;;;32.80;74.00;;;;;;4842207;29;20499;-81
2023/07/12 10:38:04;;;;;;;16.50;5.50;;;32.90;72.00;;;;;;4880420;29;20100;-80
2023/07/12 10:40:32;;;;;;;;;;;32.90;71.40;;;;;;4880995;29;20033;-81
2023/07/12 10:43:04;;;;;;;11.45;6.53;;;32.80;71.20;;;;;;4879337;29;19907;-81
2023/07/12 10:45:34;;;;;;;11.38;5.90;;;32.90;71.50;;;;;;4863506;29;20037;-80
2023/07/12 10:48:01;;;;;;;14.65;5.50;;;33.00;70.40;;;;;;4880889;29;20028;-80
2023/07/12 10:50:37;;;;;;;14.98;5.70;;;33.10;70.20;;;;;;4881063;29;20052;-80
2023/07/12 10:53:11;;;;;;;11.65;6.03;;;33.20;70.40;;;;;;4880708;29;20033;-80
2023/07/12 10:55:42;;;;;;;14.57;5.88;;;33.40;69.70;;;;;;4852606;29;20060;-80
2023/07/12 10:58:28;;;;;;;13.30;5.80;;;33.30;69.40;;;;;;4873035;29;20025;-80
2023/07/12 11:00:57;;;;;;;16.63;5.53;;;33.40;70.00;;;;;;4869801;29;20032;-80
2023/07/12 11:03:48;;;;;;;16.67;6.80;;;33.50;69.90;;;;;;4845199;29;20128;-81
2023/07/12 11:06:26;;;;;;;13.73;5.35;;;33.60;69.40;;;;;;4862341;29;20034;-81
2023/07/12 11:08:54;;;;;;;10.63;5.57;;;33.70;68.60;;;;;;4866705;29;20033;-80
2023/07/12 11:11:20;;;;;;;14.85;5.80;;;33.90;68.50;;;;;;4861901;29;20082;-80
2023/07/12 11:13:51;;;;;;;12.57;5.03;;;34.20;65.80;;;;;;4860932;29;20058;-81
2023/07/12 11:16:19;;;;;;;11.40;5.70;;;34.40;66.50;;;;;;4844144;29;20483;-81
2023/07/12 11:18:50;;;;;;;10.63;5.65;;;34.60;66.70;;;;;;4860367;29;20029;-80
2023/07/12 11:21:40;;;;;;;12.70;5.00;;;34.50;65.00;;;;;;4858561;29;20486;-80
2023/07/12 11:24:25;;;;;;;14.60;4.95;;;34.50;64.70;;;;;;4861084;29;20110;-80
2023/07/12 11:26:55;;;;;;;16.27;6.68;;;34.50;64.90;;;;;;4861614;29;20056;-80
2023/07/12 11:29:24;;;;;;;17.25;5.47;;;34.70;64.10;;;;;;4860978;29;20041;-81
2023/07/12 11:32:25;;;;;;;14.10;4.90;;;34.90;65.20;;;;;;4861757;29;20053;-81
2023/07/12 11:35:09;;;;;;;11.25;5.45;;;35.00;62.50;;;;;;4860561;29;20036;-81
2023/07/12 11:37:40;;;;;;;17.85;6.00;;;35.10;63.00;;;;;;4844612;29;20112;-81
2023/07/12 11:40:16;;;;;;;10.13;4.40;;;34.90;62.60;;;;;;4843806;29;20436;-80
2023/07/12 11:42:42;;;;;;;16.60;5.63;;;34.80;62.80;;;;;;4860032;29;20047;-81
2023/07/12 11:45:14;;;;;;;9.98;5.25;;;34.70;62.40;;;;;;4859089;29;20029;-80
2023/07/12 11:47:51;;;;;;;16.50;6.65;;;34.70;62.20;;;;;;4860456;29;20034;-81
2023/07/12 11:50:19;;;;;;;;;;;34.90;62.30;;;;;;4863344;29;20049;-81
2023/07/12 11:52:45;;;;;;;10.27;5.57;;;35.10;64.40;;;;;;4868054;29;19922;-80
2023/07/12 11:55:21;;;;;;;13.98;5.72;;;35.30;62.80;;;;;;4860819;29;20483;-81
2023/07/12 11:57:48;;;;;;;21.95;5.72;;;35.40;61.10;;;;;;4859270;29;20033;-80
2023/07/12 12:00:21;;;;;;;13.40;5.00;;;35.60;61.40;;;;;;4875960;29;20033;-80
2023/07/12 12:02:52;;;;;;;6.82;4.47;;;35.70;60.30;;;;;;4890999;29;20040;-80
2023/07/12 12:05:26;;;;;;;8.45;4.78;;;35.50;61.00;;;;;;4884380;29;20060;-80
2023/07/12 12:07:54;;;;;;;11.02;5.32;;;35.20;61.50;;;;;;4883851;29;20456;-80
2023/07/12 12:10:26;;;;;;;13.88;4.30;;;35.00;62.00;;;;;;4898166;29;20029;-80
2023/07/12 12:12:53;;;;;;;17.05;4.35;;;34.90;63.10;;;;;;4881717;29;20037;-80
2023/07/12 12:15:22;;;;;;;10.35;4.88;;;35.10;63.50;;;;;;4888950;29;20494;-80
2023/07/12 12:17:50;;;;;;;9.00;4.57;;;35.30;61.80;;;;;;4879423;29;20490;-80
2023/07/12 12:20:21;;;;;;;15.65;4.88;;;35.40;61.90;;;;;;4864012;29;20029;-80
2023/07/12 12:22:56;;;;;;;10.23;4.25;;;35.20;61.40;;;;;;4878574;29;20092;-80
2023/07/12 12:25:26;;;;;;;10.48;4.80;;;35.20;62.20;;;;;;4878053;29;20173;-80
2023/07/12 12:27:52;;;;;;;12.60;5.25;;;35.40;62.50;;;;;;4858734;29;20045;-80
2023/07/12 12:30:20;;;;;;;10.93;4.78;;;35.60;61.00;;;;;;4863734;29;20038;-80
2023/07/12 12:33:21;;;;;;;9.57;4.43;;;35.80;60.70;;;;;;4862145;29;20037;-80
2023/07/12 12:35:50;;;;;;;9.50;4.47;;;36.00;59.80;;;;;;4881277;29;20040;-80
2023/07/12 12:38:22;;;;;;;16.33;5.07;;;36.00;59.60;;;;;;4880278;29;20025;-80
2023/07/12 12:40:54;;;;;;;19.20;5.75;;;36.20;60.30;;;;;;4880768;29;20510;-80
2023/07/12 12:43:20;;;;;;;15.80;5.88;;;36.40;59.00;;;;;;4863949;29;20029;-80
2023/07/12 12:45:46;;;;;;;11.75;5.85;;;36.60;58.20;;;;;;4880784;29;20171;-80
2023/07/12 12:48:12;;;;;;;;;;;36.60;57.80;;;;;;4881237;29;20068;-80